CheckWX is a tool to help pilots better visualize weather data.  It is not intended as a substitute for an official pre-flight weather briefing.

01:11:24 UTC

KIDP METAR
Independence Municipal Airport
Independence, Kansas, USA
Current

36 mins ago

KIDP 200035Z AUTO 17013KT 10SM CLR 33/25 A2983 RMK AO2 T03260246
Observed
Jul-20 @ 00:35 UTC
Wind
  • 170° at 13 KTS
Visibility
10 SM
Flight Rules
VFR
Cloud Levels
  • Clear skies
Temperature
33°C / 91°F
Dewpoint
25°C / 77°F
Heat Index
40°C / 104°F
Humidity
63%
Altimeter
29.83" Hg
Pressure
1010.12 hPa
Previous

56 mins ago

KIDP 200015Z AUTO 17012KT 10SM CLR 33/25 A2983 RMK AO2 T03340247
Observed
Jul-20 @ 00:15 UTC
Wind
  • 170° at 12 KTS
Visibility
10 SM
Flight Rules
VFR
Cloud Levels
  • Clear skies
Temperature
33°C / 91°F
Dewpoint
25°C / 77°F
Heat Index
40°C / 104°F
Humidity
63%
Altimeter
29.83" Hg
Pressure
1010.12 hPa
Previous

1 hour ago

KIDP 192355Z AUTO 17012KT 10SM CLR 34/23 A2983 RMK AO2 T03410235 10356 20335 403560241
Observed
Jul-19 @ 23:55 UTC
Wind
  • 170° at 12 KTS
Visibility
10 SM
Flight Rules
VFR
Cloud Levels
  • Clear skies
Temperature
34°C / 93°F
Dewpoint
24°C / 75°F
Heat Index
41°C / 105°F
Humidity
56%
Altimeter
29.83" Hg
Pressure
1010.12 hPa